sensor_id;sensor_type;location;lat;lon;timestamp;P1;durP1;ratioP1;P2;durP2;ratioP2
27907;SDS011;15249;48.092;11.484;2022-09-03T00:00:50;3.7;;;3.4;;
27907;SDS011;15249;48.092;11.484;2022-09-03T00:01:56;3.7;;;3.4;;
27907;SDS011;15249;48.092;11.484;2022-09-03T00:03:03;3.7;;;3.4;;
27907;SDS011;15249;48.092;11.484;2022-09-03T00:04:13;3.7;;;3.4;;
27907;SDS011;15249;48.092;11.484;2022-09-03T00:05:20;3.7;;;3.4;;
27907;SDS011;15249;48.092;11.484;2022-09-03T00:06:25;3.7;;;3.4;;
27907;SDS011;15249;48.092;11.484;2022-09-03T00:07:33;3.75;;;3.35;;
27907;SDS011;15249;48.092;11.484;2022-09-03T00:08:41;3.75;;;3.35;;
27907;SDS011;15249;48.092;11.484;2022-09-03T00:09:45;3.75;;;3.35;;
27907;SDS011;15249;48.092;11.484;2022-09-03T00:10:52;3.75;;;3.35;;
27907;SDS011;15249;48.092;11.484;2022-09-03T00:12:00;3.75;;;3.35;;
27907;SDS011;15249;48.092;11.484;2022-09-03T00:13:07;3.75;;;3.35;;
27907;SDS011;15249;48.092;11.484;2022-09-03T00:14:09;3.75;;;3.35;;
27907;SDS011;15249;48.092;11.484;2022-09-03T00:15:16;3.75;;;3.35;;
27907;SDS011;15249;48.092;11.484;2022-09-03T00:16:21;3.75;;;3.35;;
27907;SDS011;15249;48.092;11.484;2022-09-03T00:17:26;3.75;;;3.35;;
27907;SDS011;15249;48.092;11.484;2022-09-03T00:18:31;3.7;;;3.4;;
27907;SDS011;15249;48.092;11.484;2022-09-03T00:19:35;3.7;;;3.4;;
27907;SDS011;15249;48.092;11.484;2022-09-03T00:20:40;3.7;;;3.4;;
27907;SDS011;15249;48.092;11.484;2022-09-03T00:21:44;3.7;;;3.4;;
27907;SDS011;15249;48.092;11.484;2022-09-03T00:22:48;3.7;;;3.4;;
27907;SDS011;15249;48.092;11.484;2022-09-03T00:23:52;3.7;;;3.4;;
27907;SDS011;15249;48.092;11.484;2022-09-03T00:24:53;3.7;;;3.4;;
27907;SDS011;15249;48.092;11.484;2022-09-03T00:25:58;3.7;;;3.4;;
27907;SDS011;15249;48.092;11.484;2022-09-03T00:27:04;3.7;;;3.4;;
27907;SDS011;15249;48.092;11.484;2022-09-03T00:28:13;3.7;;;3.4;;
27907;SDS011;15249;48.092;11.484;2022-09-03T00:29:20;3.8;;;3.5;;
27907;SDS011;15249;48.092;11.484;2022-09-03T00:30:26;3.8;;;3.5;;
27907;SDS011;15249;48.092;11.484;2022-09-03T00:31:29;3.8;;;3.5;;
27907;SDS011;15249;48.092;11.484;2022-09-03T00:32:35;3.8;;;3.5;;
27907;SDS011;15249;48.092;11.484;2022-09-03T00:33:39;3.8;;;3.5;;
27907;SDS011;15249;48.092;11.484;2022-09-03T00:34:42;3.8;;;3.5;;
27907;SDS011;15249;48.092;11.484;2022-09-03T00:35:49;3.8;;;3.5;;
27907;SDS011;15249;48.092;11.484;2022-09-03T00:36:54;3.8;;;3.5;;
27907;SDS011;15249;48.092;11.484;2022-09-03T00:37:54;3.8;;;3.5;;
27907;SDS011;15249;48.092;11.484;2022-09-03T00:38:56;3.8;;;3.5;;
27907;SDS011;15249;48.092;11.484;2022-09-03T00:39:57;4.649999;;;3.4;;
27907;SDS011;15249;48.092;11.484;2022-09-03T00:41:01;4.649999;;;3.4;;
27907;SDS011;15249;48.092;11.484;2022-09-03T00:42:12;4.649999;;;3.4;;
27907;SDS011;15249;48.092;11.484;2022-09-03T00:43:26;4.649999;;;3.4;;
27907;SDS011;15249;48.092;11.484;2022-09-03T00:44:47;4.649999;;;3.4;;
27907;SDS011;15249;48.092;11.484;2022-09-03T00:45:59;4.649999;;;3.4;;
27907;SDS011;15249;48.092;11.484;2022-09-03T00:47:08;4.649999;;;3.4;;
27907;SDS011;15249;48.092;11.484;2022-09-03T00:48:14;4.649999;;;3.4;;
27907;SDS011;15249;48.092;11.484;2022-09-03T00:49:24;4.649999;;;3.4;;
27907;SDS011;15249;48.092;11.484;2022-09-03T00:50:35;4.25;;;3.55;;
27907;SDS011;15249;48.092;11.484;2022-09-03T00:51:47;4.25;;;3.55;;
27907;SDS011;15249;48.092;11.484;2022-09-03T00:52:53;4.25;;;3.55;;
27907;SDS011;15249;48.092;11.484;2022-09-03T00:54:05;4.25;;;3.55;;
27907;SDS011;15249;48.092;11.484;2022-09-03T00:55:18;4.25;;;3.55;;
27907;SDS011;15249;48.092;11.484;2022-09-03T00:56:26;4.25;;;3.55;;
27907;SDS011;15249;48.092;11.484;2022-09-03T00:57:38;4.25;;;3.55;;
27907;SDS011;15249;48.092;11.484;2022-09-03T00:58:54;4.25;;;3.55;;
27907;SDS011;15249;48.092;11.484;2022-09-03T01:00:10;4.25;;;3.55;;
27907;SDS011;15249;48.092;11.484;2022-09-03T01:01:14;4;;;3.6;;
27907;SDS011;15249;48.092;11.484;2022-09-03T01:02:22;4;;;3.6;;
27907;SDS011;15249;48.092;11.484;2022-09-03T01:03:31;4;;;3.6;;
27907;SDS011;15249;48.092;11.484;2022-09-03T01:04:42;4;;;3.6;;
27907;SDS011;15249;48.092;11.484;2022-09-03T01:06:01;4;;;3.6;;
27907;SDS011;15249;48.092;11.484;2022-09-03T01:07:14;4;;;3.6;;
27907;SDS011;15249;48.092;11.484;2022-09-03T01:08:29;4;;;3.6;;
27907;SDS011;15249;48.092;11.484;2022-09-03T01:09:43;4;;;3.6;;
27907;SDS011;15249;48.092;11.484;2022-09-03T01:10:53;4;;;3.6;;
27907;SDS011;15249;48.092;11.484;2022-09-03T01:12:03;4;;;3.5;;
27907;SDS011;15249;48.092;11.484;2022-09-03T01:13:14;4;;;3.5;;
27907;SDS011;15249;48.092;11.484;2022-09-03T01:14:22;4;;;3.5;;
27907;SDS011;15249;48.092;11.484;2022-09-03T01:15:33;4;;;3.5;;
27907;SDS011;15249;48.092;11.484;2022-09-03T01:16:43;4;;;3.5;;
27907;SDS011;15249;48.092;11.484;2022-09-03T01:17:54;4;;;3.5;;
27907;SDS011;15249;48.092;11.484;2022-09-03T01:19:04;4;;;3.5;;
27907;SDS011;15249;48.092;11.484;2022-09-03T01:20:26;4;;;3.5;;
27907;SDS011;15249;48.092;11.484;2022-09-03T01:21:41;4;;;3.5;;
27907;SDS011;15249;48.092;11.484;2022-09-03T01:23:01;5.2;;;3.900001;;
27907;SDS011;15249;48.092;11.484;2022-09-03T01:24:29;5.2;;;3.900001;;
27907;SDS011;15249;48.092;11.484;2022-09-03T01:25:48;5.2;;;3.900001;;
27907;SDS011;15249;48.092;11.484;2022-09-03T01:26:55;5.2;;;3.900001;;
27907;SDS011;15249;48.092;11.484;2022-09-03T01:28:10;5.2;;;3.900001;;
27907;SDS011;15249;48.092;11.484;2022-09-03T01:29:19;5.2;;;3.900001;;
27907;SDS011;15249;48.092;11.484;2022-09-03T01:30:24;5.2;;;3.900001;;
27907;SDS011;15249;48.092;11.484;2022-09-03T01:31:28;5.2;;;3.900001;;
27907;SDS011;15249;48.092;11.484;2022-09-03T01:32:37;4.849999;;;3.85;;
27907;SDS011;15249;48.092;11.484;2022-09-03T01:33:47;4.849999;;;3.85;;
27907;SDS011;15249;48.092;11.484;2022-09-03T01:34:56;4.849999;;;3.85;;
27907;SDS011;15249;48.092;11.484;2022-09-03T01:36:14;4.849999;;;3.85;;
27907;SDS011;15249;48.092;11.484;2022-09-03T01:37:21;4.849999;;;3.85;;
27907;SDS011;15249;48.092;11.484;2022-09-03T01:38:31;4.849999;;;3.85;;
27907;SDS011;15249;48.092;11.484;2022-09-03T01:39:43;4.849999;;;3.85;;
27907;SDS011;15249;48.092;11.484;2022-09-03T01:40:56;4.849999;;;3.85;;
27907;SDS011;15249;48.092;11.484;2022-09-03T01:42:22;4.849999;;;3.85;;
27907;SDS011;15249;48.092;11.484;2022-09-03T01:43:36;4.45;;;4;;
27907;SDS011;15249;48.092;11.484;2022-09-03T01:44:48;4.45;;;4;;
27907;SDS011;15249;48.092;11.484;2022-09-03T01:46:02;4.45;;;4;;
27907;SDS011;15249;48.092;11.484;2022-09-03T01:47:12;4.45;;;4;;
27907;SDS011;15249;48.092;11.484;2022-09-03T01:48:30;4.45;;;4;;
27907;SDS011;15249;48.092;11.484;2022-09-03T01:49:37;4.45;;;4;;
27907;SDS011;15249;48.092;11.484;2022-09-03T01:50:43;4.45;;;4;;
27907;SDS011;15249;48.092;11.484;2022-09-03T01:51:49;4.45;;;4;;
27907;SDS011;15249;48.092;11.484;2022-09-03T01:53:02;4.45;;;4;;
27907;SDS011;15249;48.092;11.484;2022-09-03T01:54:25;4.45;;;4.05;;
27907;SDS011;15249;48.092;11.484;2022-09-03T01:55:43;4.45;;;4.05;;
27907;SDS011;15249;48.092;11.484;2022-09-03T01:57:11;4.45;;;4.05;;
27907;SDS011;15249;48.092;11.484;2022-09-03T01:58:20;4.45;;;4.05;;
27907;SDS011;15249;48.092;11.484;2022-09-03T01:59:26;4.45;;;4.05;;
27907;SDS011;15249;48.092;11.484;2022-09-03T02:00:31;4.45;;;4.05;;
27907;SDS011;15249;48.092;11.484;2022-09-03T02:01:35;4.45;;;4.05;;
27907;SDS011;15249;48.092;11.484;2022-09-03T02:02:41;4.45;;;4.05;;
27907;SDS011;15249;48.092;11.484;2022-09-03T02:03:43;4.45;;;4.05;;
27907;SDS011;15249;48.092;11.484;2022-09-03T02:04:53;5;;;4.1;;
27907;SDS011;15249;48.092;11.484;2022-09-03T02:05:56;5;;;4.1;;
27907;SDS011;15249;48.092;11.484;2022-09-03T02:06:58;5;;;4.1;;
27907;SDS011;15249;48.092;11.484;2022-09-03T02:08:01;5;;;4.1;;
27907;SDS011;15249;48.092;11.484;2022-09-03T02:09:02;5;;;4.1;;
27907;SDS011;15249;48.092;11.484;2022-09-03T02:10:04;5;;;4.1;;
27907;SDS011;15249;48.092;11.484;2022-09-03T02:11:07;5;;;4.1;;
27907;SDS011;15249;48.092;11.484;2022-09-03T02:12:10;5;;;4.1;;
27907;SDS011;15249;48.092;11.484;2022-09-03T02:13:16;5;;;4.1;;
27907;SDS011;15249;48.092;11.484;2022-09-03T02:14:21;5;;;4.1;;
27907;SDS011;15249;48.092;11.484;2022-09-03T02:15:22;5.3;;;4.3;;
27907;SDS011;15249;48.092;11.484;2022-09-03T02:16:25;5.3;;;4.3;;
27907;SDS011;15249;48.092;11.484;2022-09-03T02:17:30;5.3;;;4.3;;
27907;SDS011;15249;48.092;11.484;2022-09-03T02:18:32;5.3;;;4.3;;
27907;SDS011;15249;48.092;11.484;2022-09-03T02:19:39;5.3;;;4.3;;
27907;SDS011;15249;48.092;11.484;2022-09-03T02:20:40;5.3;;;4.3;;
27907;SDS011;15249;48.092;11.484;2022-09-03T02:21:43;5.3;;;4.3;;
27907;SDS011;15249;48.092;11.484;2022-09-03T02:22:49;5.3;;;4.3;;
27907;SDS011;15249;48.092;11.484;2022-09-03T02:23:51;5.3;;;4.3;;
27907;SDS011;15249;48.092;11.484;2022-09-03T02:24:52;5.3;;;4.3;;
27907;SDS011;15249;48.092;11.484;2022-09-03T02:25:54;4.900001;;;4.5;;
27907;SDS011;15249;48.092;11.484;2022-09-03T02:26:56;4.900001;;;4.5;;
27907;SDS011;15249;48.092;11.484;2022-09-03T02:27:57;4.900001;;;4.5;;
27907;SDS011;15249;48.092;11.484;2022-09-03T02:28:58;4.900001;;;4.5;;
27907;SDS011;15249;48.092;11.484;2022-09-03T02:30:01;4.900001;;;4.5;;
27907;SDS011;15249;48.092;11.484;2022-09-03T02:31:03;4.900001;;;4.5;;
27907;SDS011;15249;48.092;11.484;2022-09-03T02:32:03;4.900001;;;4.5;;
27907;SDS011;15249;48.092;11.484;2022-09-03T02:33:04;4.900001;;;4.5;;
27907;SDS011;15249;48.092;11.484;2022-09-03T02:34:05;4.900001;;;4.5;;
27907;SDS011;15249;48.092;11.484;2022-09-03T02:35:06;4.900001;;;4.5;;
27907;SDS011;15249;48.092;11.484;2022-09-03T02:36:08;4.900001;;;4.5;;
27907;SDS011;15249;48.092;11.484;2022-09-03T02:37:11;4.5;;;4.1;;
27907;SDS011;15249;48.092;11.484;2022-09-03T02:38:13;4.5;;;4.1;;
27907;SDS011;15249;48.092;11.484;2022-09-03T02:39:16;4.5;;;4.1;;
27907;SDS011;15249;48.092;11.484;2022-09-03T02:40:17;4.5;;;4.1;;
27907;SDS011;15249;48.092;11.484;2022-09-03T02:41:18;4.5;;;4.1;;
27907;SDS011;15249;48.092;11.484;2022-09-03T02:42:19;4.5;;;4.1;;
27907;SDS011;15249;48.092;11.484;2022-09-03T02:43:21;4.5;;;4.1;;
27907;SDS011;15249;48.092;11.484;2022-09-03T02:44:28;4.5;;;4.1;;
27907;SDS011;15249;48.092;11.484;2022-09-03T02:45:32;4.5;;;4.1;;
27907;SDS011;15249;48.092;11.484;2022-09-03T02:46:37;4.5;;;4.1;;
27907;SDS011;15249;48.092;11.484;2022-09-03T02:47:42;4.55;;;4.149999;;
27907;SDS011;15249;48.092;11.484;2022-09-03T02:48:46;4.55;;;4.149999;;
27907;SDS011;15249;48.092;11.484;2022-09-03T02:49:47;4.55;;;4.149999;;
27907;SDS011;15249;48.092;11.484;2022-09-03T02:50:48;4.55;;;4.149999;;
27907;SDS011;15249;48.092;11.484;2022-09-03T02:51:49;4.55;;;4.149999;;
27907;SDS011;15249;48.092;11.484;2022-09-03T02:52:49;4.55;;;4.149999;;
27907;SDS011;15249;48.092;11.484;2022-09-03T02:53:50;4.55;;;4.149999;;
27907;SDS011;15249;48.092;11.484;2022-09-03T02:54:51;4.55;;;4.149999;;
27907;SDS011;15249;48.092;11.484;2022-09-03T02:55:51;4.55;;;4.149999;;
27907;SDS011;15249;48.092;11.484;2022-09-03T02:56:52;4.55;;;4.149999;;
27907;SDS011;15249;48.092;11.484;2022-09-03T02:57:53;4.75;;;4.35;;
27907;SDS011;15249;48.092;11.484;2022-09-03T02:58:54;4.75;;;4.35;;
27907;SDS011;15249;48.092;11.484;2022-09-03T02:59:54;4.75;;;4.35;;
27907;SDS011;15249;48.092;11.484;2022-09-03T03:00:55;4.75;;;4.35;;
27907;SDS011;15249;48.092;11.484;2022-09-03T03:01:56;4.75;;;4.35;;
27907;SDS011;15249;48.092;11.484;2022-09-03T03:02:56;4.75;;;4.35;;
27907;SDS011;15249;48.092;11.484;2022-09-03T03:03:57;4.75;;;4.35;;
27907;SDS011;15249;48.092;11.484;2022-09-03T03:04:58;4.75;;;4.35;;
27907;SDS011;15249;48.092;11.484;2022-09-03T03:05:59;4.75;;;4.35;;
27907;SDS011;15249;48.092;11.484;2022-09-03T03:07:02;4.75;;;4.35;;
27907;SDS011;15249;48.092;11.484;2022-09-03T03:08:03;4.75;;;4.35;;
27907;SDS011;15249;48.092;11.484;2022-09-03T03:09:04;8.6;;;4.65;;
27907;SDS011;15249;48.092;11.484;2022-09-03T03:10:05;8.6;;;4.65;;
27907;SDS011;15249;48.092;11.484;2022-09-03T03:11:07;8.6;;;4.65;;
27907;SDS011;15249;48.092;11.484;2022-09-03T03:12:08;8.6;;;4.65;;
27907;SDS011;15249;48.092;11.484;2022-09-03T03:13:09;8.6;;;4.65;;
27907;SDS011;15249;48.092;11.484;2022-09-03T03:14:10;8.6;;;4.65;;
27907;SDS011;15249;48.092;11.484;2022-09-03T03:15:10;8.6;;;4.65;;
27907;SDS011;15249;48.092;11.484;2022-09-03T03:16:11;8.6;;;4.65;;
27907;SDS011;15249;48.092;11.484;2022-09-03T03:17:13;8.6;;;4.65;;
27907;SDS011;15249;48.092;11.484;2022-09-03T03:18:13;8.6;;;4.65;;
27907;SDS011;15249;48.092;11.484;2022-09-03T03:19:14;5.299999;;;4.45;;
27907;SDS011;15249;48.092;11.484;2022-09-03T03:20:14;5.299999;;;4.45;;
27907;SDS011;15249;48.092;11.484;2022-09-03T03:21:16;5.299999;;;4.45;;
27907;SDS011;15249;48.092;11.484;2022-09-03T03:22:17;5.299999;;;4.45;;
27907;SDS011;15249;48.092;11.484;2022-09-03T03:23:18;5.299999;;;4.45;;
27907;SDS011;15249;48.092;11.484;2022-09-03T03:24:19;5.299999;;;4.45;;
27907;SDS011;15249;48.092;11.484;2022-09-03T03:25:19;5.299999;;;4.45;;
27907;SDS011;15249;48.092;11.484;2022-09-03T03:26:20;5.299999;;;4.45;;
27907;SDS011;15249;48.092;11.484;2022-09-03T03:27:21;5.299999;;;4.45;;
27907;SDS011;15249;48.092;11.484;2022-09-03T03:28:22;5.299999;;;4.45;;
27907;SDS011;15249;48.092;11.484;2022-09-03T03:29:24;5.299999;;;4.45;;
27907;SDS011;15249;48.092;11.484;2022-09-03T03:30:25;6.5;;;4.600001;;
27907;SDS011;15249;48.092;11.484;2022-09-03T03:31:26;6.5;;;4.600001;;
27907;SDS011;15249;48.092;11.484;2022-09-03T03:32:27;6.5;;;4.600001;;
27907;SDS011;15249;48.092;11.484;2022-09-03T03:33:27;6.5;;;4.600001;;
27907;SDS011;15249;48.092;11.484;2022-09-03T03:34:28;6.5;;;4.600001;;
27907;SDS011;15249;48.092;11.484;2022-09-03T03:35:28;6.5;;;4.600001;;
27907;SDS011;15249;48.092;11.484;2022-09-03T03:36:29;6.5;;;4.600001;;
27907;SDS011;15249;48.092;11.484;2022-09-03T03:37:32;6.5;;;4.600001;;
27907;SDS011;15249;48.092;11.484;2022-09-03T03:38:33;6.5;;;4.600001;;
27907;SDS011;15249;48.092;11.484;2022-09-03T03:39:34;6.5;;;4.600001;;
27907;SDS011;15249;48.092;11.484;2022-09-03T03:40:36;5.1;;;4.6;;
27907;SDS011;15249;48.092;11.484;2022-09-03T03:41:37;5.1;;;4.6;;
27907;SDS011;15249;48.092;11.484;2022-09-03T03:42:38;5.1;;;4.6;;
27907;SDS011;15249;48.092;11.484;2022-09-03T03:43:39;5.1;;;4.6;;
27907;SDS011;15249;48.092;11.484;2022-09-03T03:44:41;5.1;;;4.6;;
27907;SDS011;15249;48.092;11.484;2022-09-03T03:45:41;5.1;;;4.6;;
27907;SDS011;15249;48.092;11.484;2022-09-03T03:46:42;5.1;;;4.6;;
27907;SDS011;15249;48.092;11.484;2022-09-03T03:47:42;5.1;;;4.6;;
27907;SDS011;15249;48.092;11.484;2022-09-03T03:48:43;5.1;;;4.6;;
27907;SDS011;15249;48.092;11.484;2022-09-03T03:49:47;5.1;;;4.6;;
27907;SDS011;15249;48.092;11.484;2022-09-03T03:50:48;5.1;;;4.6;;
27907;SDS011;15249;48.092;11.484;2022-09-03T03:51:48;5.1;;;4.6;;
27907;SDS011;15249;48.092;11.484;2022-09-03T03:52:49;5.1;;;4.6;;
27907;SDS011;15249;48.092;11.484;2022-09-03T03:53:52;5.1;;;4.6;;
27907;SDS011;15249;48.092;11.484;2022-09-03T03:54:53;5.1;;;4.6;;
27907;SDS011;15249;48.092;11.484;2022-09-03T03:55:54;5.1;;;4.6;;
27907;SDS011;15249;48.092;11.484;2022-09-03T03:56:55;5.1;;;4.6;;
27907;SDS011;15249;48.092;11.484;2022-09-03T03:57:57;5.1;;;4.6;;
27907;SDS011;15249;48.092;11.484;2022-09-03T03:58:58;5.1;;;4.6;;
27907;SDS011;15249;48.092;11.484;2022-09-03T03:59:58;5.1;;;4.6;;
27907;SDS011;15249;48.092;11.484;2022-09-03T04:01:03;5.1;;;4.6;;
27907;SDS011;15249;48.092;11.484;2022-09-03T04:02:04;6.949999;;;4.799999;;
27907;SDS011;15249;48.092;11.484;2022-09-03T04:03:05;6.949999;;;4.799999;;
27907;SDS011;15249;48.092;11.484;2022-09-03T04:04:05;6.949999;;;4.799999;;
27907;SDS011;15249;48.092;11.484;2022-09-03T04:05:06;6.949999;;;4.799999;;
27907;SDS011;15249;48.092;11.484;2022-09-03T04:06:08;6.949999;;;4.799999;;
27907;SDS011;15249;48.092;11.484;2022-09-03T04:07:10;6.949999;;;4.799999;;
27907;SDS011;15249;48.092;11.484;2022-09-03T04:08:12;6.949999;;;4.799999;;
27907;SDS011;15249;48.092;11.484;2022-09-03T04:09:12;6.949999;;;4.799999;;
27907;SDS011;15249;48.092;11.484;2022-09-03T04:10:14;6.949999;;;4.799999;;
27907;SDS011;15249;48.092;11.484;2022-09-03T04:11:15;6.949999;;;4.799999;;
27907;SDS011;15249;48.092;11.484;2022-09-03T04:12:18;6.949999;;;4.799999;;
27907;SDS011;15249;48.092;11.484;2022-09-03T04:13:18;5.349999;;;4.849999;;
27907;SDS011;15249;48.092;11.484;2022-09-03T04:14:19;5.349999;;;4.849999;;
27907;SDS011;15249;48.092;11.484;2022-09-03T04:15:20;5.349999;;;4.849999;;
27907;SDS011;15249;48.092;11.484;2022-09-03T04:16:21;5.349999;;;4.849999;;
27907;SDS011;15249;48.092;11.484;2022-09-03T04:17:23;5.349999;;;4.849999;;
27907;SDS011;15249;48.092;11.484;2022-09-03T04:18:23;5.349999;;;4.849999;;
27907;SDS011;15249;48.092;11.484;2022-09-03T04:19:24;5.349999;;;4.849999;;
27907;SDS011;15249;48.092;11.484;2022-09-03T04:20:24;5.349999;;;4.849999;;
27907;SDS011;15249;48.092;11.484;2022-09-03T04:21:26;5.349999;;;4.849999;;
27907;SDS011;15249;48.092;11.484;2022-09-03T04:22:28;5.349999;;;4.849999;;
27907;SDS011;15249;48.092;11.484;2022-09-03T04:23:29;5.400001;;;4.900001;;
27907;SDS011;15249;48.092;11.484;2022-09-03T04:24:31;5.400001;;;4.900001;;
27907;SDS011;15249;48.092;11.484;2022-09-03T04:25:32;5.400001;;;4.900001;;
27907;SDS011;15249;48.092;11.484;2022-09-03T04:26:33;5.400001;;;4.900001;;
27907;SDS011;15249;48.092;11.484;2022-09-03T04:27:34;5.400001;;;4.900001;;
27907;SDS011;15249;48.092;11.484;2022-09-03T04:28:35;5.400001;;;4.900001;;
27907;SDS011;15249;48.092;11.484;2022-09-03T04:29:36;5.400001;;;4.900001;;
27907;SDS011;15249;48.092;11.484;2022-09-03T04:30:36;5.400001;;;4.900001;;
27907;SDS011;15249;48.092;11.484;2022-09-03T04:31:37;5.400001;;;4.900001;;
27907;SDS011;15249;48.092;11.484;2022-09-03T04:32:55;5.400001;;;4.900001;;
27907;SDS011;15249;48.092;11.484;2022-09-03T04:33:55;4.85;;;4.35;;
27907;SDS011;15249;48.092;11.484;2022-09-03T04:34:56;4.85;;;4.35;;
27907;SDS011;15249;48.092;11.484;2022-09-03T04:36:02;4.85;;;4.35;;
27907;SDS011;15249;48.092;11.484;2022-09-03T04:37:04;4.85;;;4.35;;
27907;SDS011;15249;48.092;11.484;2022-09-03T04:38:05;4.85;;;4.35;;
27907;SDS011;15249;48.092;11.484;2022-09-03T04:39:05;4.85;;;4.35;;
27907;SDS011;15249;48.092;11.484;2022-09-03T04:40:06;4.85;;;4.35;;
27907;SDS011;15249;48.092;11.484;2022-09-03T04:41:08;4.85;;;4.35;;
27907;SDS011;15249;48.092;11.484;2022-09-03T04:42:11;4.85;;;4.35;;
27907;SDS011;15249;48.092;11.484;2022-09-03T04:43:11;4.85;;;4.35;;
27907;SDS011;15249;48.092;11.484;2022-09-03T04:44:12;4.85;;;4.35;;
27907;SDS011;15249;48.092;11.484;2022-09-03T04:45:17;5.5;;;4.6;;
27907;SDS011;15249;48.092;11.484;2022-09-03T04:46:18;5.5;;;4.6;;
27907;SDS011;15249;48.092;11.484;2022-09-03T04:47:19;5.5;;;4.6;;
27907;SDS011;15249;48.092;11.484;2022-09-03T04:48:20;5.5;;;4.6;;
27907;SDS011;15249;48.092;11.484;2022-09-03T04:49:20;5.5;;;4.6;;
27907;SDS011;15249;48.092;11.484;2022-09-03T04:50:22;5.5;;;4.6;;
27907;SDS011;15249;48.092;11.484;2022-09-03T04:51:23;5.5;;;4.6;;
27907;SDS011;15249;48.092;11.484;2022-09-03T04:52:30;5.5;;;4.6;;
27907;SDS011;15249;48.092;11.484;2022-09-03T04:53:31;5.5;;;4.6;;
27907;SDS011;15249;48.092;11.484;2022-09-03T04:54:33;5.5;;;4.6;;
27907;SDS011;15249;48.092;11.484;2022-09-03T04:55:35;4.849999;;;4.45;;
27907;SDS011;15249;48.092;11.484;2022-09-03T04:56:37;4.849999;;;4.45;;
27907;SDS011;15249;48.092;11.484;2022-09-03T04:57:38;4.849999;;;4.45;;
27907;SDS011;15249;48.092;11.484;2022-09-03T04:58:39;4.849999;;;4.45;;
27907;SDS011;15249;48.092;11.484;2022-09-03T04:59:40;4.849999;;;4.45;;
27907;SDS011;15249;48.092;11.484;2022-09-03T05:00:40;4.849999;;;4.45;;
27907;SDS011;15249;48.092;11.484;2022-09-03T05:01:42;4.849999;;;4.45;;
27907;SDS011;15249;48.092;11.484;2022-09-03T05:02:43;4.849999;;;4.45;;
27907;SDS011;15249;48.092;11.484;2022-09-03T05:03:44;4.849999;;;4.45;;
27907;SDS011;15249;48.092;11.484;2022-09-03T05:04:45;4.849999;;;4.45;;
27907;SDS011;15249;48.092;11.484;2022-09-03T05:05:50;4.75;;;4.35;;
27907;SDS011;15249;48.092;11.484;2022-09-03T05:06:52;4.75;;;4.35;;
27907;SDS011;15249;48.092;11.484;2022-09-03T05:07:52;4.75;;;4.35;;
27907;SDS011;15249;48.092;11.484;2022-09-03T05:08:57;4.75;;;4.35;;
27907;SDS011;15249;48.092;11.484;2022-09-03T05:09:59;4.75;;;4.35;;
27907;SDS011;15249;48.092;11.484;2022-09-03T05:10:59;4.75;;;4.35;;
27907;SDS011;15249;48.092;11.484;2022-09-03T05:12:00;4.75;;;4.35;;
27907;SDS011;15249;48.092;11.484;2022-09-03T05:13:01;4.75;;;4.35;;
27907;SDS011;15249;48.092;11.484;2022-09-03T05:14:04;4.75;;;4.35;;
27907;SDS011;15249;48.092;11.484;2022-09-03T05:15:05;4.75;;;4.35;;
27907;SDS011;15249;48.092;11.484;2022-09-03T05:16:07;4.75;;;4.35;;
27907;SDS011;15249;48.092;11.484;2022-09-03T05:17:09;4.849999;;;4.349999;;
27907;SDS011;15249;48.092;11.484;2022-09-03T05:18:09;4.849999;;;4.349999;;
27907;SDS011;15249;48.092;11.484;2022-09-03T05:19:11;4.849999;;;4.349999;;
27907;SDS011;15249;48.092;11.484;2022-09-03T05:20:12;4.849999;;;4.349999;;
27907;SDS011;15249;48.092;11.484;2022-09-03T05:21:13;4.849999;;;4.349999;;
27907;SDS011;15249;48.092;11.484;2022-09-03T05:22:20;4.849999;;;4.349999;;
27907;SDS011;15249;48.092;11.484;2022-09-03T05:23:21;4.849999;;;4.349999;;
27907;SDS011;15249;48.092;11.484;2022-09-03T05:24:21;4.849999;;;4.349999;;
27907;SDS011;15249;48.092;11.484;2022-09-03T05:25:22;4.849999;;;4.349999;;
27907;SDS011;15249;48.092;11.484;2022-09-03T05:26:24;4.849999;;;4.349999;;
27907;SDS011;15249;48.092;11.484;2022-09-03T05:27:26;4.649999;;;4.25;;
27907;SDS011;15249;48.092;11.484;2022-09-03T05:28:27;4.649999;;;4.25;;
27907;SDS011;15249;48.092;11.484;2022-09-03T05:29:29;4.649999;;;4.25;;
27907;SDS011;15249;48.092;11.484;2022-09-03T05:30:29;4.649999;;;4.25;;
27907;SDS011;15249;48.092;11.484;2022-09-03T05:31:30;4.649999;;;4.25;;
27907;SDS011;15249;48.092;11.484;2022-09-03T05:32:31;4.649999;;;4.25;;
27907;SDS011;15249;48.092;11.484;2022-09-03T05:33:32;4.649999;;;4.25;;
27907;SDS011;15249;48.092;11.484;2022-09-03T05:34:33;4.649999;;;4.25;;
27907;SDS011;15249;48.092;11.484;2022-09-03T05:35:33;4.649999;;;4.25;;
27907;SDS011;15249;48.092;11.484;2022-09-03T05:36:35;4.649999;;;4.25;;
27907;SDS011;15249;48.092;11.484;2022-09-03T05:37:36;4.649999;;;4.25;;
27907;SDS011;15249;48.092;11.484;2022-09-03T05:38:37;4.75;;;4.149999;;
27907;SDS011;15249;48.092;11.484;2022-09-03T05:39:38;4.75;;;4.149999;;
27907;SDS011;15249;48.092;11.484;2022-09-03T05:40:40;4.75;;;4.149999;;
27907;SDS011;15249;48.092;11.484;2022-09-03T05:41:41;4.75;;;4.149999;;
27907;SDS011;15249;48.092;11.484;2022-09-03T05:42:41;4.75;;;4.149999;;
27907;SDS011;15249;48.092;11.484;2022-09-03T05:43:42;4.75;;;4.149999;;
27907;SDS011;15249;48.092;11.484;2022-09-03T05:44:43;4.75;;;4.149999;;
27907;SDS011;15249;48.092;11.484;2022-09-03T05:45:43;4.75;;;4.149999;;
27907;SDS011;15249;48.092;11.484;2022-09-03T05:46:44;4.75;;;4.149999;;
27907;SDS011;15249;48.092;11.484;2022-09-03T05:47:44;4.75;;;4.149999;;
27907;SDS011;15249;48.092;11.484;2022-09-03T05:48:45;4.75;;;3.8;;
27907;SDS011;15249;48.092;11.484;2022-09-03T05:49:45;4.75;;;3.8;;
27907;SDS011;15249;48.092;11.484;2022-09-03T05:50:46;4.75;;;3.8;;
27907;SDS011;15249;48.092;11.484;2022-09-03T05:51:46;4.75;;;3.8;;
27907;SDS011;15249;48.092;11.484;2022-09-03T05:52:47;4.75;;;3.8;;
27907;SDS011;15249;48.092;11.484;2022-09-03T05:53:47;4.75;;;3.8;;
27907;SDS011;15249;48.092;11.484;2022-09-03T05:54:48;4.75;;;3.8;;
27907;SDS011;15249;48.092;11.484;2022-09-03T05:55:53;4.75;;;3.8;;
27907;SDS011;15249;48.092;11.484;2022-09-03T05:56:54;4.75;;;3.8;;
27907;SDS011;15249;48.092;11.484;2022-09-03T05:57:55;4.75;;;3.8;;
27907;SDS011;15249;48.092;11.484;2022-09-03T05:58:56;4.75;;;3.8;;
27907;SDS011;15249;48.092;11.484;2022-09-03T05:59:59;4.15;;;3.750001;;
27907;SDS011;15249;48.092;11.484;2022-09-03T06:00:59;4.15;;;3.750001;;
27907;SDS011;15249;48.092;11.484;2022-09-03T06:02:08;4.15;;;3.750001;;
27907;SDS011;15249;48.092;11.484;2022-09-03T06:03:08;4.15;;;3.750001;;
27907;SDS011;15249;48.092;11.484;2022-09-03T06:04:10;4.15;;;3.750001;;
27907;SDS011;15249;48.092;11.484;2022-09-03T06:05:12;4.15;;;3.750001;;
27907;SDS011;15249;48.092;11.484;2022-09-03T06:06:13;4.15;;;3.750001;;
27907;SDS011;15249;48.092;11.484;2022-09-03T06:07:14;4.15;;;3.750001;;
27907;SDS011;15249;48.092;11.484;2022-09-03T06:08:14;4.15;;;3.750001;;
27907;SDS011;15249;48.092;11.484;2022-09-03T06:09:16;4.15;;;3.750001;;
27907;SDS011;15249;48.092;11.484;2022-09-03T06:10:18;4.050001;;;3.65;;
27907;SDS011;15249;48.092;11.484;2022-09-03T06:11:19;4.050001;;;3.65;;
27907;SDS011;15249;48.092;11.484;2022-09-03T06:12:20;4.050001;;;3.65;;
27907;SDS011;15249;48.092;11.484;2022-09-03T06:13:21;4.050001;;;3.65;;